Terminal Aerodrome Forecast
Issued by NWS

Home | Current Version | Previous Version | Text Only | Print | Product List | Glossary On
Versions: 1 2 3 4 5 6 7 8 9 10 11 12 13
000
FTUS43 KLSX 201700
TAFSUS
TAF
KSUS 201731Z 2018/2118 19009G15KT P6SM FEW060 SCT250
     FM210100 18006KT P6SM SCT120 BKN250
     FM211200 22007KT P6SM OVC100=

USA.gov is the U.S. government's official web portal to all federal, state and local government web resources and services.